sensor_id;sensor_type;location;lat;lon;timestamp;pressure;altitude;pressure_sealevel;temperature
11792;BMP180;5953;52.372;9.918;2023-12-14T00:01:45;99912.00;;;10.80
11792;BMP180;5953;52.372;9.918;2023-12-14T00:04:15;99907.00;;;10.70
11792;BMP180;5953;52.372;9.918;2023-12-14T00:06:43;99919.00;;;10.70
11792;BMP180;5953;52.372;9.918;2023-12-14T00:09:11;99934.00;;;10.80
11792;BMP180;5953;52.372;9.918;2023-12-14T00:11:39;99929.00;;;10.80
11792;BMP180;5953;52.372;9.918;2023-12-14T00:14:07;99934.00;;;10.90
11792;BMP180;5953;52.372;9.918;2023-12-14T00:16:36;99944.00;;;10.80
11792;BMP180;5953;52.372;9.918;2023-12-14T00:19:04;99934.00;;;10.90
11792;BMP180;5953;52.372;9.918;2023-12-14T00:21:32;99940.00;;;10.90
11792;BMP180;5953;52.372;9.918;2023-12-14T00:24:00;99948.00;;;10.90
11792;BMP180;5953;52.372;9.918;2023-12-14T00:26:28;99949.00;;;11.00
11792;BMP180;5953;52.372;9.918;2023-12-14T00:28:55;99955.00;;;10.80
11792;BMP180;5953;52.372;9.918;2023-12-14T00:31:28;99956.00;;;10.80
11792;BMP180;5953;52.372;9.918;2023-12-14T00:33:57;99956.00;;;10.80
11792;BMP180;5953;52.372;9.918;2023-12-14T00:36:25;99958.00;;;10.70
11792;BMP180;5953;52.372;9.918;2023-12-14T00:38:53;99964.00;;;10.80
11792;BMP180;5953;52.372;9.918;2023-12-14T00:41:22;99969.00;;;10.70
11792;BMP180;5953;52.372;9.918;2023-12-14T00:43:49;99969.00;;;10.80
11792;BMP180;5953;52.372;9.918;2023-12-14T00:46:17;99978.00;;;10.80
11792;BMP180;5953;52.372;9.918;2023-12-14T00:48:45;99984.00;;;10.70
11792;BMP180;5953;52.372;9.918;2023-12-14T00:51:14;99984.00;;;10.70
11792;BMP180;5953;52.372;9.918;2023-12-14T00:53:42;99991.00;;;10.80
11792;BMP180;5953;52.372;9.918;2023-12-14T00:56:10;99981.00;;;10.80
11792;BMP180;5953;52.372;9.918;2023-12-14T00:58:38;100003.00;;;10.70
11792;BMP180;5953;52.372;9.918;2023-12-14T01:01:06;100002.00;;;10.50
11792;BMP180;5953;52.372;9.918;2023-12-14T01:03:33;100013.00;;;10.70
11792;BMP180;5953;52.372;9.918;2023-12-14T01:06:01;100025.00;;;10.50
11792;BMP180;5953;52.372;9.918;2023-12-14T01:08:30;100026.00;;;10.50
11792;BMP180;5953;52.372;9.918;2023-12-14T01:10:58;100031.00;;;10.50
11792;BMP180;5953;52.372;9.918;2023-12-14T01:13:26;100033.00;;;10.60
11792;BMP180;5953;52.372;9.918;2023-12-14T01:15:54;100037.00;;;10.60
11792;BMP180;5953;52.372;9.918;2023-12-14T01:18:21;100047.00;;;10.70
11792;BMP180;5953;52.372;9.918;2023-12-14T01:20:51;100053.00;;;10.70
11792;BMP180;5953;52.372;9.918;2023-12-14T01:23:19;100045.00;;;10.60
11792;BMP180;5953;52.372;9.918;2023-12-14T01:25:48;100060.00;;;10.60
11792;BMP180;5953;52.372;9.918;2023-12-14T01:28:16;100060.00;;;10.60
11792;BMP180;5953;52.372;9.918;2023-12-14T01:30:44;100055.00;;;10.50
11792;BMP180;5953;52.372;9.918;2023-12-14T01:33:12;100056.00;;;10.40
11792;BMP180;5953;52.372;9.918;2023-12-14T01:35:41;100052.00;;;10.40
11792;BMP180;5953;52.372;9.918;2023-12-14T01:38:08;100065.00;;;10.40
11792;BMP180;5953;52.372;9.918;2023-12-14T01:40:36;100076.00;;;10.50
11792;BMP180;5953;52.372;9.918;2023-12-14T01:43:09;100083.00;;;10.30
11792;BMP180;5953;52.372;9.918;2023-12-14T01:45:37;100081.00;;;10.30
11792;BMP180;5953;52.372;9.918;2023-12-14T01:48:05;100079.00;;;10.30
11792;BMP180;5953;52.372;9.918;2023-12-14T01:50:33;100083.00;;;10.20
11792;BMP180;5953;52.372;9.918;2023-12-14T01:53:01;100086.00;;;10.20
11792;BMP180;5953;52.372;9.918;2023-12-14T01:55:29;100092.00;;;10.20
11792;BMP180;5953;52.372;9.918;2023-12-14T01:57:57;100103.00;;;10.20
11792;BMP180;5953;52.372;9.918;2023-12-14T02:00:29;100101.00;;;10.20
11792;BMP180;5953;52.372;9.918;2023-12-14T02:02:59;100105.00;;;10.20
11792;BMP180;5953;52.372;9.918;2023-12-14T02:05:27;100111.00;;;10.20
11792;BMP180;5953;52.372;9.918;2023-12-14T02:07:55;100121.00;;;10.10
11792;BMP180;5953;52.372;9.918;2023-12-14T02:10:23;100128.00;;;10.10
11792;BMP180;5953;52.372;9.918;2023-12-14T02:12:51;100123.00;;;10.00
11792;BMP180;5953;52.372;9.918;2023-12-14T02:15:19;100126.00;;;10.10
11792;BMP180;5953;52.372;9.918;2023-12-14T02:17:48;100125.00;;;10.10
11792;BMP180;5953;52.372;9.918;2023-12-14T02:20:16;100129.00;;;10.00
11792;BMP180;5953;52.372;9.918;2023-12-14T02:22:51;100125.00;;;10.10
11792;BMP180;5953;52.372;9.918;2023-12-14T02:25:19;100137.00;;;10.10
11792;BMP180;5953;52.372;9.918;2023-12-14T02:27:47;100136.00;;;10.10
11792;BMP180;5953;52.372;9.918;2023-12-14T02:30:17;100136.00;;;10.00
11792;BMP180;5953;52.372;9.918;2023-12-14T02:32:46;100143.00;;;10.10
11792;BMP180;5953;52.372;9.918;2023-12-14T02:35:14;100147.00;;;10.10
11792;BMP180;5953;52.372;9.918;2023-12-14T02:37:42;100138.00;;;10.10
11792;BMP180;5953;52.372;9.918;2023-12-14T02:40:11;100130.00;;;10.20
11792;BMP180;5953;52.372;9.918;2023-12-14T02:42:39;100150.00;;;10.20
11792;BMP180;5953;52.372;9.918;2023-12-14T02:45:09;100156.00;;;10.20
11792;BMP180;5953;52.372;9.918;2023-12-14T02:47:37;100151.00;;;10.20
11792;BMP180;5953;52.372;9.918;2023-12-14T02:50:06;100165.00;;;10.40
11792;BMP180;5953;52.372;9.918;2023-12-14T02:52:34;100172.00;;;10.30
11792;BMP180;5953;52.372;9.918;2023-12-14T02:55:03;100167.00;;;10.30
11792;BMP180;5953;52.372;9.918;2023-12-14T02:57:32;100173.00;;;10.20
11792;BMP180;5953;52.372;9.918;2023-12-14T03:00:00;100182.00;;;10.20
11792;BMP180;5953;52.372;9.918;2023-12-14T03:02:27;100180.00;;;10.20
11792;BMP180;5953;52.372;9.918;2023-12-14T03:04:55;100177.00;;;10.30
11792;BMP180;5953;52.372;9.918;2023-12-14T03:07:23;100183.00;;;10.10
11792;BMP180;5953;52.372;9.918;2023-12-14T03:09:51;100191.00;;;10.20
11792;BMP180;5953;52.372;9.918;2023-12-14T03:12:19;100182.00;;;10.20
11792;BMP180;5953;52.372;9.918;2023-12-14T03:14:48;100189.00;;;10.20
11792;BMP180;5953;52.372;9.918;2023-12-14T03:17:16;100189.00;;;10.10
11792;BMP180;5953;52.372;9.918;2023-12-14T03:19:44;100189.00;;;10.10
11792;BMP180;5953;52.372;9.918;2023-12-14T03:22:11;100191.00;;;10.10
11792;BMP180;5953;52.372;9.918;2023-12-14T03:24:39;100199.00;;;10.10
11792;BMP180;5953;52.372;9.918;2023-12-14T03:27:07;100181.00;;;10.10
11792;BMP180;5953;52.372;9.918;2023-12-14T03:29:35;100196.00;;;10.10
11792;BMP180;5953;52.372;9.918;2023-12-14T03:32:04;100201.00;;;10.10
11792;BMP180;5953;52.372;9.918;2023-12-14T03:34:32;100202.00;;;10.20
11792;BMP180;5953;52.372;9.918;2023-12-14T03:37:00;100209.00;;;10.30
11792;BMP180;5953;52.372;9.918;2023-12-14T03:39:28;100211.00;;;10.40
11792;BMP180;5953;52.372;9.918;2023-12-14T03:41:56;100213.00;;;10.30
11792;BMP180;5953;52.372;9.918;2023-12-14T03:44:23;100215.00;;;10.30
11792;BMP180;5953;52.372;9.918;2023-12-14T03:46:51;100226.00;;;10.20
11792;BMP180;5953;52.372;9.918;2023-12-14T03:49:22;100222.00;;;10.20
11792;BMP180;5953;52.372;9.918;2023-12-14T03:51:50;100227.00;;;10.10
11792;BMP180;5953;52.372;9.918;2023-12-14T03:54:17;100222.00;;;10.20
11792;BMP180;5953;52.372;9.918;2023-12-14T03:56:45;100231.00;;;10.20
11792;BMP180;5953;52.372;9.918;2023-12-14T03:59:13;100227.00;;;10.20
11792;BMP180;5953;52.372;9.918;2023-12-14T04:01:41;100231.00;;;10.00
11792;BMP180;5953;52.372;9.918;2023-12-14T04:04:09;100242.00;;;10.10
11792;BMP180;5953;52.372;9.918;2023-12-14T04:06:38;100247.00;;;10.00
11792;BMP180;5953;52.372;9.918;2023-12-14T04:09:06;100255.00;;;10.00
11792;BMP180;5953;52.372;9.918;2023-12-14T04:11:34;100262.00;;;10.00
11792;BMP180;5953;52.372;9.918;2023-12-14T04:14:02;100259.00;;;10.00
11792;BMP180;5953;52.372;9.918;2023-12-14T04:16:30;100264.00;;;10.10
11792;BMP180;5953;52.372;9.918;2023-12-14T04:18:57;100267.00;;;9.90
11792;BMP180;5953;52.372;9.918;2023-12-14T04:21:25;100260.00;;;9.90
11792;BMP180;5953;52.372;9.918;2023-12-14T04:23:54;100271.00;;;10.00
11792;BMP180;5953;52.372;9.918;2023-12-14T04:26:22;100285.00;;;9.90
11792;BMP180;5953;52.372;9.918;2023-12-14T04:28:50;100290.00;;;9.90
11792;BMP180;5953;52.372;9.918;2023-12-14T04:31:18;100298.00;;;9.90
11792;BMP180;5953;52.372;9.918;2023-12-14T04:33:45;100308.00;;;10.00
11792;BMP180;5953;52.372;9.918;2023-12-14T04:36:14;100310.00;;;10.00
11792;BMP180;5953;52.372;9.918;2023-12-14T04:38:41;100306.00;;;9.80
11792;BMP180;5953;52.372;9.918;2023-12-14T04:41:16;100311.00;;;10.00
11792;BMP180;5953;52.372;9.918;2023-12-14T04:43:44;100314.00;;;10.00
11792;BMP180;5953;52.372;9.918;2023-12-14T04:46:15;100313.00;;;10.00
11792;BMP180;5953;52.372;9.918;2023-12-14T04:48:43;100321.00;;;9.90
11792;BMP180;5953;52.372;9.918;2023-12-14T04:51:12;100324.00;;;10.00
11792;BMP180;5953;52.372;9.918;2023-12-14T04:53:40;100326.00;;;10.10
11792;BMP180;5953;52.372;9.918;2023-12-14T04:56:11;100331.00;;;10.10
11792;BMP180;5953;52.372;9.918;2023-12-14T04:58:41;100337.00;;;10.20
11792;BMP180;5953;52.372;9.918;2023-12-14T05:01:09;100334.00;;;10.20
11792;BMP180;5953;52.372;9.918;2023-12-14T05:03:38;100335.00;;;10.10
11792;BMP180;5953;52.372;9.918;2023-12-14T05:06:06;100348.00;;;10.00
11792;BMP180;5953;52.372;9.918;2023-12-14T05:08:35;100347.00;;;10.10
11792;BMP180;5953;52.372;9.918;2023-12-14T05:11:03;100350.00;;;10.10
11792;BMP180;5953;52.372;9.918;2023-12-14T05:13:31;100353.00;;;10.10
11792;BMP180;5953;52.372;9.918;2023-12-14T05:16:00;100357.00;;;10.10
11792;BMP180;5953;52.372;9.918;2023-12-14T05:18:28;100374.00;;;10.10
11792;BMP180;5953;52.372;9.918;2023-12-14T05:20:56;100374.00;;;10.00
11792;BMP180;5953;52.372;9.918;2023-12-14T05:23:24;100380.00;;;10.20
11792;BMP180;5953;52.372;9.918;2023-12-14T05:25:52;100375.00;;;10.10
11792;BMP180;5953;52.372;9.918;2023-12-14T05:28:20;100374.00;;;10.10
11792;BMP180;5953;52.372;9.918;2023-12-14T05:30:48;100380.00;;;10.00
11792;BMP180;5953;52.372;9.918;2023-12-14T05:33:17;100381.00;;;10.00
11792;BMP180;5953;52.372;9.918;2023-12-14T05:35:45;100388.00;;;10.00
11792;BMP180;5953;52.372;9.918;2023-12-14T05:38:13;100387.00;;;9.90
11792;BMP180;5953;52.372;9.918;2023-12-14T05:40:41;100398.00;;;10.00
11792;BMP180;5953;52.372;9.918;2023-12-14T05:43:10;100400.00;;;10.00
11792;BMP180;5953;52.372;9.918;2023-12-14T05:45:38;100394.00;;;10.00
11792;BMP180;5953;52.372;9.918;2023-12-14T05:48:05;100403.00;;;10.10
11792;BMP180;5953;52.372;9.918;2023-12-14T05:50:35;100404.00;;;10.10
11792;BMP180;5953;52.372;9.918;2023-12-14T05:53:03;100408.00;;;10.10
11792;BMP180;5953;52.372;9.918;2023-12-14T05:55:30;100406.00;;;10.10
11792;BMP180;5953;52.372;9.918;2023-12-14T05:57:58;100415.00;;;10.10
11792;BMP180;5953;52.372;9.918;2023-12-14T06:00:26;100421.00;;;10.00
11792;BMP180;5953;52.372;9.918;2023-12-14T06:02:54;100427.00;;;10.10
11792;BMP180;5953;52.372;9.918;2023-12-14T06:05:21;100436.00;;;10.00
11792;BMP180;5953;52.372;9.918;2023-12-14T06:07:51;100440.00;;;10.10
11792;BMP180;5953;52.372;9.918;2023-12-14T06:10:19;100434.00;;;10.20
11792;BMP180;5953;52.372;9.918;2023-12-14T06:12:48;100436.00;;;10.20
11792;BMP180;5953;52.372;9.918;2023-12-14T06:15:15;100450.00;;;10.10
11792;BMP180;5953;52.372;9.918;2023-12-14T06:17:43;100443.00;;;10.00
11792;BMP180;5953;52.372;9.918;2023-12-14T06:20:11;100454.00;;;10.20
11792;BMP180;5953;52.372;9.918;2023-12-14T06:22:40;100444.00;;;10.00
11792;BMP180;5953;52.372;9.918;2023-12-14T06:25:09;100441.00;;;10.10
11792;BMP180;5953;52.372;9.918;2023-12-14T06:27:37;100446.00;;;10.10
11792;BMP180;5953;52.372;9.918;2023-12-14T06:30:06;100446.00;;;10.10
11792;BMP180;5953;52.372;9.918;2023-12-14T06:32:36;100441.00;;;10.20
11792;BMP180;5953;52.372;9.918;2023-12-14T06:35:05;100466.00;;;10.00
11792;BMP180;5953;52.372;9.918;2023-12-14T06:37:33;100462.00;;;10.10
11792;BMP180;5953;52.372;9.918;2023-12-14T06:40:01;100466.00;;;10.10
11792;BMP180;5953;52.372;9.918;2023-12-14T06:42:31;100470.00;;;10.20
11792;BMP180;5953;52.372;9.918;2023-12-14T06:45:00;100472.00;;;10.10
11792;BMP180;5953;52.372;9.918;2023-12-14T06:47:28;100476.00;;;10.20
11792;BMP180;5953;52.372;9.918;2023-12-14T06:49:56;100479.00;;;10.10
11792;BMP180;5953;52.372;9.918;2023-12-14T06:52:24;100482.00;;;10.20
11792;BMP180;5953;52.372;9.918;2023-12-14T06:54:52;100479.00;;;10.20
11792;BMP180;5953;52.372;9.918;2023-12-14T06:57:20;100476.00;;;10.30
11792;BMP180;5953;52.372;9.918;2023-12-14T06:59:52;100485.00;;;10.40
11792;BMP180;5953;52.372;9.918;2023-12-14T07:02:20;100489.00;;;10.20
11792;BMP180;5953;52.372;9.918;2023-12-14T07:04:48;100506.00;;;10.30
11792;BMP180;5953;52.372;9.918;2023-12-14T07:07:16;100507.00;;;10.30
11792;BMP180;5953;52.372;9.918;2023-12-14T07:09:44;100516.00;;;10.30
11792;BMP180;5953;52.372;9.918;2023-12-14T07:12:15;100515.00;;;10.30
11792;BMP180;5953;52.372;9.918;2023-12-14T07:14:43;100520.00;;;10.30
11792;BMP180;5953;52.372;9.918;2023-12-14T07:17:12;100529.00;;;10.30
11792;BMP180;5953;52.372;9.918;2023-12-14T07:19:40;100538.00;;;10.20
11792;BMP180;5953;52.372;9.918;2023-12-14T07:22:08;100540.00;;;10.10
11792;BMP180;5953;52.372;9.918;2023-12-14T07:24:36;100538.00;;;10.10
11792;BMP180;5953;52.372;9.918;2023-12-14T07:27:17;100544.00;;;10.20
11792;BMP180;5953;52.372;9.918;2023-12-14T07:29:45;100545.00;;;10.20
11792;BMP180;5953;52.372;9.918;2023-12-14T07:32:15;100556.00;;;10.20
11792;BMP180;5953;52.372;9.918;2023-12-14T07:34:43;100563.00;;;10.20
11792;BMP180;5953;52.372;9.918;2023-12-14T07:37:12;100569.00;;;10.20
11792;BMP180;5953;52.372;9.918;2023-12-14T07:39:39;100577.00;;;10.20
11792;BMP180;5953;52.372;9.918;2023-12-14T07:42:07;100575.00;;;10.20
11792;BMP180;5953;52.372;9.918;2023-12-14T07:44:35;100592.00;;;10.10
11792;BMP180;5953;52.372;9.918;2023-12-14T07:47:04;100579.00;;;10.00
11792;BMP180;5953;52.372;9.918;2023-12-14T07:49:33;100589.00;;;9.90
11792;BMP180;5953;52.372;9.918;2023-12-14T07:52:01;100611.00;;;10.00
11792;BMP180;5953;52.372;9.918;2023-12-14T07:54:29;100604.00;;;10.00
11792;BMP180;5953;52.372;9.918;2023-12-14T07:56:56;100609.00;;;9.80
11792;BMP180;5953;52.372;9.918;2023-12-14T07:59:24;100614.00;;;9.90
11792;BMP180;5953;52.372;9.918;2023-12-14T08:01:52;100626.00;;;9.90
11792;BMP180;5953;52.372;9.918;2023-12-14T08:04:20;100618.00;;;9.90
11792;BMP180;5953;52.372;9.918;2023-12-14T08:06:50;100626.00;;;9.90
11792;BMP180;5953;52.372;9.918;2023-12-14T08:09:18;100636.00;;;9.90
11792;BMP180;5953;52.372;9.918;2023-12-14T08:11:46;100636.00;;;9.90
11792;BMP180;5953;52.372;9.918;2023-12-14T08:14:13;100643.00;;;9.80
11792;BMP180;5953;52.372;9.918;2023-12-14T08:16:41;100651.00;;;9.90
11792;BMP180;5953;52.372;9.918;2023-12-14T08:19:09;100655.00;;;9.80
11792;BMP180;5953;52.372;9.918;2023-12-14T08:21:37;100653.00;;;9.80
11792;BMP180;5953;52.372;9.918;2023-12-14T08:24:07;100654.00;;;9.80
11792;BMP180;5953;52.372;9.918;2023-12-14T08:26:35;100663.00;;;9.80
11792;BMP180;5953;52.372;9.918;2023-12-14T08:29:02;100658.00;;;9.70
11792;BMP180;5953;52.372;9.918;2023-12-14T08:31:31;100667.00;;;9.90
11792;BMP180;5953;52.372;9.918;2023-12-14T08:33:58;100666.00;;;9.80
11792;BMP180;5953;52.372;9.918;2023-12-14T08:36:27;100670.00;;;9.80
11792;BMP180;5953;52.372;9.918;2023-12-14T08:38:55;100684.00;;;9.70
11792;BMP180;5953;52.372;9.918;2023-12-14T08:41:24;100685.00;;;9.70
11792;BMP180;5953;52.372;9.918;2023-12-14T08:43:53;100695.00;;;9.70
11792;BMP180;5953;52.372;9.918;2023-12-14T08:46:25;100690.00;;;9.80
11792;BMP180;5953;52.372;9.918;2023-12-14T08:48:52;100698.00;;;9.60
11792;BMP180;5953;52.372;9.918;2023-12-14T08:51:20;100700.00;;;9.70
11792;BMP180;5953;52.372;9.918;2023-12-14T08:53:50;100704.00;;;9.60
11792;BMP180;5953;52.372;9.918;2023-12-14T08:56:18;100709.00;;;9.70
11792;BMP180;5953;52.372;9.918;2023-12-14T08:58:48;100722.00;;;9.60
11792;BMP180;5953;52.372;9.918;2023-12-14T09:01:19;100729.00;;;9.60
11792;BMP180;5953;52.372;9.918;2023-12-14T09:03:47;100729.00;;;9.50
11792;BMP180;5953;52.372;9.918;2023-12-14T09:06:16;100741.00;;;9.50
11792;BMP180;5953;52.372;9.918;2023-12-14T09:08:45;100738.00;;;9.50
11792;BMP180;5953;52.372;9.918;2023-12-14T09:11:13;100739.00;;;9.50
11792;BMP180;5953;52.372;9.918;2023-12-14T09:13:41;100753.00;;;9.60
11792;BMP180;5953;52.372;9.918;2023-12-14T09:16:11;100764.00;;;9.70
11792;BMP180;5953;52.372;9.918;2023-12-14T09:18:38;100761.00;;;9.70
11792;BMP180;5953;52.372;9.918;2023-12-14T09:21:06;100771.00;;;9.80
11792;BMP180;5953;52.372;9.918;2023-12-14T09:23:34;100774.00;;;9.80
11792;BMP180;5953;52.372;9.918;2023-12-14T09:26:02;100767.00;;;9.70
11792;BMP180;5953;52.372;9.918;2023-12-14T09:28:30;100771.00;;;9.70
11792;BMP180;5953;52.372;9.918;2023-12-14T09:30:58;100770.00;;;9.70
11792;BMP180;5953;52.372;9.918;2023-12-14T09:33:27;100775.00;;;9.70
11792;BMP180;5953;52.372;9.918;2023-12-14T09:35:55;100786.00;;;9.70
11792;BMP180;5953;52.372;9.918;2023-12-14T09:38:23;100782.00;;;9.60
11792;BMP180;5953;52.372;9.918;2023-12-14T09:40:53;100792.00;;;9.50
11792;BMP180;5953;52.372;9.918;2023-12-14T09:43:21;100792.00;;;9.70
11792;BMP180;5953;52.372;9.918;2023-12-14T09:45:51;100779.00;;;9.70
11792;BMP180;5953;52.372;9.918;2023-12-14T09:48:20;100786.00;;;9.70
11792;BMP180;5953;52.372;9.918;2023-12-14T09:50:51;100791.00;;;9.80
11792;BMP180;5953;52.372;9.918;2023-12-14T09:53:22;100799.00;;;9.80
11792;BMP180;5953;52.372;9.918;2023-12-14T09:55:50;100792.00;;;9.90
11792;BMP180;5953;52.372;9.918;2023-12-14T09:58:18;100798.00;;;9.90
11792;BMP180;5953;52.372;9.918;2023-12-14T10:00:45;100812.00;;;9.90
11792;BMP180;5953;52.372;9.918;2023-12-14T10:03:24;100811.00;;;10.00
11792;BMP180;5953;52.372;9.918;2023-12-14T10:05:56;100815.00;;;10.00
11792;BMP180;5953;52.372;9.918;2023-12-14T10:08:25;100828.00;;;10.00
11792;BMP180;5953;52.372;9.918;2023-12-14T10:10:54;100817.00;;;10.10
11792;BMP180;5953;52.372;9.918;2023-12-14T10:13:36;100815.00;;;10.10
11792;BMP180;5953;52.372;9.918;2023-12-14T10:16:05;100820.00;;;10.10
11792;BMP180;5953;52.372;9.918;2023-12-14T10:18:34;100829.00;;;10.00
11792;BMP180;5953;52.372;9.918;2023-12-14T10:21:06;100822.00;;;10.10
11792;BMP180;5953;52.372;9.918;2023-12-14T10:23:34;100830.00;;;10.00
11792;BMP180;5953;52.372;9.918;2023-12-14T10:26:04;100836.00;;;10.10
11792;BMP180;5953;52.372;9.918;2023-12-14T10:28:33;100845.00;;;10.10
11792;BMP180;5953;52.372;9.918;2023-12-14T10:31:00;100845.00;;;10.10
11792;BMP180;5953;52.372;9.918;2023-12-14T10:33:30;100839.00;;;10.10
11792;BMP180;5953;52.372;9.918;2023-12-14T10:35:58;100818.00;;;10.10
11792;BMP180;5953;52.372;9.918;2023-12-14T10:38:29;100848.00;;;9.80
11792;BMP180;5953;52.372;9.918;2023-12-14T10:40:58;100864.00;;;9.90
11792;BMP180;5953;52.372;9.918;2023-12-14T10:43:26;100858.00;;;9.80
11792;BMP180;5953;52.372;9.918;2023-12-14T10:46:14;100852.00;;;10.00
11792;BMP180;5953;52.372;9.918;2023-12-14T10:48:43;100875.00;;;9.80
11792;BMP180;5953;52.372;9.918;2023-12-14T10:51:12;100868.00;;;9.90
11792;BMP180;5953;52.372;9.918;2023-12-14T10:53:42;100868.00;;;9.90
11792;BMP180;5953;52.372;9.918;2023-12-14T10:56:14;100868.00;;;9.80
11792;BMP180;5953;52.372;9.918;2023-12-14T10:58:47;100879.00;;;9.90
11792;BMP180;5953;52.372;9.918;2023-12-14T11:01:16;100870.00;;;9.90
11792;BMP180;5953;52.372;9.918;2023-12-14T11:03:44;100879.00;;;9.70
11792;BMP180;5953;52.372;9.918;2023-12-14T11:06:30;100882.00;;;9.80
11792;BMP180;5953;52.372;9.918;2023-12-14T11:09:01;100886.00;;;10.00
11792;BMP180;5953;52.372;9.918;2023-12-14T11:11:40;100893.00;;;10.00
11792;BMP180;5953;52.372;9.918;2023-12-14T11:14:10;100900.00;;;10.00
11792;BMP180;5953;52.372;9.918;2023-12-14T11:16:39;100901.00;;;10.00
11792;BMP180;5953;52.372;9.918;2023-12-14T11:19:25;100911.00;;;9.90
11792;BMP180;5953;52.372;9.918;2023-12-14T11:22:11;100900.00;;;9.80
11792;BMP180;5953;52.372;9.918;2023-12-14T11:24:51;100907.00;;;9.70
11792;BMP180;5953;52.372;9.918;2023-12-14T11:27:20;100907.00;;;9.90
11792;BMP180;5953;52.372;9.918;2023-12-14T11:29:53;100898.00;;;9.90
11792;BMP180;5953;52.372;9.918;2023-12-14T11:32:21;100914.00;;;10.00
11792;BMP180;5953;52.372;9.918;2023-12-14T11:34:49;100915.00;;;10.00
11792;BMP180;5953;52.372;9.918;2023-12-14T11:37:17;100923.00;;;10.10
11792;BMP180;5953;52.372;9.918;2023-12-14T11:39:50;100917.00;;;10.10
11792;BMP180;5953;52.372;9.918;2023-12-14T11:42:23;100924.00;;;10.20
11792;BMP180;5953;52.372;9.918;2023-12-14T11:44:51;100918.00;;;10.20
11792;BMP180;5953;52.372;9.918;2023-12-14T11:47:21;100928.00;;;10.30
11792;BMP180;5953;52.372;9.918;2023-12-14T11:49:49;100935.00;;;10.10
11792;BMP180;5953;52.372;9.918;2023-12-14T11:52:17;100928.00;;;10.20
11792;BMP180;5953;52.372;9.918;2023-12-14T11:54:45;100926.00;;;10.30
11792;BMP180;5953;52.372;9.918;2023-12-14T11:57:16;100930.00;;;10.30
11792;BMP180;5953;52.372;9.918;2023-12-14T11:59:45;100940.00;;;10.40
11792;BMP180;5953;52.372;9.918;2023-12-14T12:02:23;100939.00;;;10.10
11792;BMP180;5953;52.372;9.918;2023-12-14T12:04:51;100936.00;;;10.00
11792;BMP180;5953;52.372;9.918;2023-12-14T12:07:19;100934.00;;;9.90
11792;BMP180;5953;52.372;9.918;2023-12-14T12:09:47;100939.00;;;9.90
11792;BMP180;5953;52.372;9.918;2023-12-14T12:12:17;100943.00;;;10.00
11792;BMP180;5953;52.372;9.918;2023-12-14T12:14:45;100941.00;;;9.80
11792;BMP180;5953;52.372;9.918;2023-12-14T12:17:12;100940.00;;;9.80
11792;BMP180;5953;52.372;9.918;2023-12-14T12:19:42;100949.00;;;9.80
11792;BMP180;5953;52.372;9.918;2023-12-14T12:22:10;100947.00;;;10.00
11792;BMP180;5953;52.372;9.918;2023-12-14T12:24:38;100941.00;;;10.10
11792;BMP180;5953;52.372;9.918;2023-12-14T12:27:06;100954.00;;;10.20
11792;BMP180;5953;52.372;9.918;2023-12-14T12:29:36;100959.00;;;10.00
11792;BMP180;5953;52.372;9.918;2023-12-14T12:32:04;100956.00;;;10.10
11792;BMP180;5953;52.372;9.918;2023-12-14T12:34:32;100963.00;;;10.10
11792;BMP180;5953;52.372;9.918;2023-12-14T12:37:00;100964.00;;;10.20
11792;BMP180;5953;52.372;9.918;2023-12-14T12:39:28;100970.00;;;10.20
11792;BMP180;5953;52.372;9.918;2023-12-14T12:41:59;100961.00;;;10.00
11792;BMP180;5953;52.372;9.918;2023-12-14T12:44:26;100970.00;;;10.30
11792;BMP180;5953;52.372;9.918;2023-12-14T12:46:55;100963.00;;;10.30
11792;BMP180;5953;52.372;9.918;2023-12-14T12:49:36;100973.00;;;10.40
11792;BMP180;5953;52.372;9.918;2023-12-14T12:52:05;100971.00;;;10.30
11792;BMP180;5953;52.372;9.918;2023-12-14T12:54:34;100978.00;;;10.20
11792;BMP180;5953;52.372;9.918;2023-12-14T12:57:02;100974.00;;;10.30
11792;BMP180;5953;52.372;9.918;2023-12-14T12:59:29;100978.00;;;10.30
11792;BMP180;5953;52.372;9.918;2023-12-14T13:02:01;100972.00;;;10.30
11792;BMP180;5953;52.372;9.918;2023-12-14T13:04:30;100986.00;;;10.20
11792;BMP180;5953;52.372;9.918;2023-12-14T13:06:58;100985.00;;;10.30
11792;BMP180;5953;52.372;9.918;2023-12-14T13:09:28;100993.00;;;10.10
11792;BMP180;5953;52.372;9.918;2023-12-14T13:11:56;100998.00;;;10.20
11792;BMP180;5953;52.372;9.918;2023-12-14T13:14:27;100992.00;;;10.20
11792;BMP180;5953;52.372;9.918;2023-12-14T13:16:55;101001.00;;;10.40
11792;BMP180;5953;52.372;9.918;2023-12-14T13:19:26;100994.00;;;10.50
11792;BMP180;5953;52.372;9.918;2023-12-14T13:21:55;100994.00;;;10.60
11792;BMP180;5953;52.372;9.918;2023-12-14T13:24:26;101005.00;;;10.70
11792;BMP180;5953;52.372;9.918;2023-12-14T13:26:54;100998.00;;;10.80
11792;BMP180;5953;52.372;9.918;2023-12-14T13:29:23;101003.00;;;10.80
11792;BMP180;5953;52.372;9.918;2023-12-14T13:31:50;101014.00;;;10.90
11792;BMP180;5953;52.372;9.918;2023-12-14T13:34:19;101015.00;;;10.90
11792;BMP180;5953;52.372;9.918;2023-12-14T13:36:48;101019.00;;;10.90
11792;BMP180;5953;52.372;9.918;2023-12-14T13:39:16;101027.00;;;10.90
11792;BMP180;5953;52.372;9.918;2023-12-14T13:41:44;101011.00;;;10.90
11792;BMP180;5953;52.372;9.918;2023-12-14T13:44:16;101021.00;;;11.00
11792;BMP180;5953;52.372;9.918;2023-12-14T13:46:44;101024.00;;;11.00
11792;BMP180;5953;52.372;9.918;2023-12-14T13:49:12;101038.00;;;11.00
11792;BMP180;5953;52.372;9.918;2023-12-14T13:51:40;101032.00;;;11.00
11792;BMP180;5953;52.372;9.918;2023-12-14T13:54:09;101034.00;;;11.10
11792;BMP180;5953;52.372;9.918;2023-12-14T13:56:37;101041.00;;;11.20
11792;BMP180;5953;52.372;9.918;2023-12-14T13:59:05;101045.00;;;11.10
11792;BMP180;5953;52.372;9.918;2023-12-14T14:01:32;101051.00;;;11.10
11792;BMP180;5953;52.372;9.918;2023-12-14T14:04:00;101049.00;;;11.00
11792;BMP180;5953;52.372;9.918;2023-12-14T14:06:28;101065.00;;;11.10
11792;BMP180;5953;52.372;9.918;2023-12-14T14:08:56;101067.00;;;11.00
11792;BMP180;5953;52.372;9.918;2023-12-14T14:11:25;101072.00;;;11.00
11792;BMP180;5953;52.372;9.918;2023-12-14T14:13:53;101074.00;;;11.00
11792;BMP180;5953;52.372;9.918;2023-12-14T14:16:21;101079.00;;;10.90
11792;BMP180;5953;52.372;9.918;2023-12-14T14:18:51;101093.00;;;11.00
11792;BMP180;5953;52.372;9.918;2023-12-14T14:21:19;101100.00;;;11.00